sensor_id;sensor_type;location;lat;lon;timestamp;P1;durP1;ratioP1;P2;durP2;ratioP2
47715;SDS011;33476;50.984;3.538;2023-06-22T00:01:58;2.00;;;0.80;;
47715;SDS011;33476;50.984;3.538;2023-06-22T00:04:24;1.75;;;0.63;;
47715;SDS011;33476;50.984;3.538;2023-06-22T00:06:50;1.90;;;0.85;;
47715;SDS011;33476;50.984;3.538;2023-06-22T00:09:15;3.83;;;0.77;;
47715;SDS011;33476;50.984;3.538;2023-06-22T00:11:41;1.77;;;0.65;;
47715;SDS011;33476;50.984;3.538;2023-06-22T00:14:06;1.27;;;0.55;;
47715;SDS011;33476;50.984;3.538;2023-06-22T00:16:32;1.55;;;0.75;;
47715;SDS011;33476;50.984;3.538;2023-06-22T00:18:57;4.57;;;1.08;;
47715;SDS011;33476;50.984;3.538;2023-06-22T00:21:28;2.70;;;0.70;;
47715;SDS011;33476;50.984;3.538;2023-06-22T00:23:54;2.10;;;1.00;;
47715;SDS011;33476;50.984;3.538;2023-06-22T00:26:20;2.88;;;0.70;;
47715;SDS011;33476;50.984;3.538;2023-06-22T00:28:46;2.17;;;0.98;;
47715;SDS011;33476;50.984;3.538;2023-06-22T00:31:11;3.45;;;1.23;;
47715;SDS011;33476;50.984;3.538;2023-06-22T00:33:37;1.70;;;0.57;;
47715;SDS011;33476;50.984;3.538;2023-06-22T00:36:02;2.22;;;0.93;;
47715;SDS011;33476;50.984;3.538;2023-06-22T00:38:28;4.65;;;1.20;;
47715;SDS011;33476;50.984;3.538;2023-06-22T00:40:54;2.95;;;1.10;;
47715;SDS011;33476;50.984;3.538;2023-06-22T00:43:19;2.03;;;1.20;;
47715;SDS011;33476;50.984;3.538;2023-06-22T00:45:44;2.55;;;1.30;;
47715;SDS011;33476;50.984;3.538;2023-06-22T00:48:10;2.42;;;0.80;;
47715;SDS011;33476;50.984;3.538;2023-06-22T00:50:37;4.18;;;1.10;;
47715;SDS011;33476;50.984;3.538;2023-06-22T00:53:05;1.60;;;1.33;;
47715;SDS011;33476;50.984;3.538;2023-06-22T00:55:33;4.38;;;1.92;;
47715;SDS011;33476;50.984;3.538;2023-06-22T00:58:02;3.20;;;1.77;;
47715;SDS011;33476;50.984;3.538;2023-06-22T01:00:35;2.95;;;1.55;;
47715;SDS011;33476;50.984;3.538;2023-06-22T01:03:01;2.10;;;1.38;;
47715;SDS011;33476;50.984;3.538;2023-06-22T01:05:27;3.38;;;1.60;;
47715;SDS011;33476;50.984;3.538;2023-06-22T01:10:49;3.33;;;2.25;;
47715;SDS011;33476;50.984;3.538;2023-06-22T01:13:29;3.20;;;1.88;;
47715;SDS011;33476;50.984;3.538;2023-06-22T01:16:02;6.93;;;2.20;;
47715;SDS011;33476;50.984;3.538;2023-06-22T01:18:31;3.10;;;2.10;;
47715;SDS011;33476;50.984;3.538;2023-06-22T01:21:01;5.20;;;2.65;;
47715;SDS011;33476;50.984;3.538;2023-06-22T01:23:36;2.67;;;2.00;;
47715;SDS011;33476;50.984;3.538;2023-06-22T01:26:08;3.38;;;2.30;;
47715;SDS011;33476;50.984;3.538;2023-06-22T01:28:53;5.68;;;2.55;;
47715;SDS011;33476;50.984;3.538;2023-06-22T01:31:21;4.80;;;2.33;;
47715;SDS011;33476;50.984;3.538;2023-06-22T01:33:53;3.65;;;2.67;;
47715;SDS011;33476;50.984;3.538;2023-06-22T01:36:21;7.35;;;2.28;;
47715;SDS011;33476;50.984;3.538;2023-06-22T01:38:47;3.85;;;2.50;;
47715;SDS011;33476;50.984;3.538;2023-06-22T01:41:14;4.10;;;2.50;;
47715;SDS011;33476;50.984;3.538;2023-06-22T01:43:40;4.03;;;2.40;;
47715;SDS011;33476;50.984;3.538;2023-06-22T01:46:06;4.47;;;2.75;;
47715;SDS011;33476;50.984;3.538;2023-06-22T01:48:33;2.75;;;2.35;;
47715;SDS011;33476;50.984;3.538;2023-06-22T01:50:59;2.75;;;2.55;;
47715;SDS011;33476;50.984;3.538;2023-06-22T01:53:24;6.57;;;2.78;;
47715;SDS011;33476;50.984;3.538;2023-06-22T01:55:50;4.07;;;2.78;;
47715;SDS011;33476;50.984;3.538;2023-06-22T01:58:15;4.22;;;3.20;;
47715;SDS011;33476;50.984;3.538;2023-06-22T02:00:44;4.82;;;3.17;;
47715;SDS011;33476;50.984;3.538;2023-06-22T02:03:14;6.40;;;3.20;;
47715;SDS011;33476;50.984;3.538;2023-06-22T02:05:49;4.20;;;2.95;;
47715;SDS011;33476;50.984;3.538;2023-06-22T02:08:24;7.32;;;3.53;;
47715;SDS011;33476;50.984;3.538;2023-06-22T02:10:53;5.50;;;2.95;;
47715;SDS011;33476;50.984;3.538;2023-06-22T02:13:21;6.07;;;3.30;;
47715;SDS011;33476;50.984;3.538;2023-06-22T02:15:49;4.70;;;3.15;;
47715;SDS011;33476;50.984;3.538;2023-06-22T02:18:15;4.75;;;3.17;;
47715;SDS011;33476;50.984;3.538;2023-06-22T02:20:40;4.80;;;3.40;;
47715;SDS011;33476;50.984;3.538;2023-06-22T02:23:06;5.10;;;3.53;;
47715;SDS011;33476;50.984;3.538;2023-06-22T02:25:32;4.13;;;2.83;;
47715;SDS011;33476;50.984;3.538;2023-06-22T02:27:58;4.60;;;3.00;;
47715;SDS011;33476;50.984;3.538;2023-06-22T02:30:23;4.90;;;3.72;;
47715;SDS011;33476;50.984;3.538;2023-06-22T02:32:49;5.50;;;3.13;;
47715;SDS011;33476;50.984;3.538;2023-06-22T02:35:14;7.10;;;3.22;;
47715;SDS011;33476;50.984;3.538;2023-06-22T02:37:39;5.35;;;3.30;;
47715;SDS011;33476;50.984;3.538;2023-06-22T02:40:09;5.45;;;3.30;;
47715;SDS011;33476;50.984;3.538;2023-06-22T02:42:35;6.40;;;3.88;;
47715;SDS011;33476;50.984;3.538;2023-06-22T02:45:04;7.53;;;4.35;;
47715;SDS011;33476;50.984;3.538;2023-06-22T02:47:29;5.97;;;3.20;;
47715;SDS011;33476;50.984;3.538;2023-06-22T02:49:55;6.63;;;3.78;;
47715;SDS011;33476;50.984;3.538;2023-06-22T02:52:20;6.15;;;4.00;;
47715;SDS011;33476;50.984;3.538;2023-06-22T02:54:46;9.32;;;3.88;;
47715;SDS011;33476;50.984;3.538;2023-06-22T02:57:11;6.95;;;4.07;;
47715;SDS011;33476;50.984;3.538;2023-06-22T02:59:38;5.70;;;4.03;;
47715;SDS011;33476;50.984;3.538;2023-06-22T03:02:07;7.53;;;3.90;;
47715;SDS011;33476;50.984;3.538;2023-06-22T03:04:34;6.57;;;3.80;;
47715;SDS011;33476;50.984;3.538;2023-06-22T03:06:59;6.68;;;4.00;;
47715;SDS011;33476;50.984;3.538;2023-06-22T03:09:26;5.35;;;4.03;;
47715;SDS011;33476;50.984;3.538;2023-06-22T03:11:52;6.28;;;4.63;;
47715;SDS011;33476;50.984;3.538;2023-06-22T03:14:18;6.72;;;4.65;;
47715;SDS011;33476;50.984;3.538;2023-06-22T03:16:44;8.88;;;4.10;;
47715;SDS011;33476;50.984;3.538;2023-06-22T03:19:09;7.18;;;4.50;;
47715;SDS011;33476;50.984;3.538;2023-06-22T03:21:35;7.53;;;3.97;;
47715;SDS011;33476;50.984;3.538;2023-06-22T03:24:03;8.05;;;4.40;;
47715;SDS011;33476;50.984;3.538;2023-06-22T03:26:29;14.32;;;4.18;;
47715;SDS011;33476;50.984;3.538;2023-06-22T03:28:55;7.88;;;4.65;;
47715;SDS011;33476;50.984;3.538;2023-06-22T03:31:20;8.50;;;4.22;;
47715;SDS011;33476;50.984;3.538;2023-06-22T03:33:46;6.28;;;3.63;;
47715;SDS011;33476;50.984;3.538;2023-06-22T03:36:12;6.57;;;3.95;;
47715;SDS011;33476;50.984;3.538;2023-06-22T03:38:37;7.13;;;4.25;;
47715;SDS011;33476;50.984;3.538;2023-06-22T03:41:03;6.85;;;4.32;;
47715;SDS011;33476;50.984;3.538;2023-06-22T03:43:28;6.22;;;3.92;;
47715;SDS011;33476;50.984;3.538;2023-06-22T03:45:53;7.65;;;4.68;;
47715;SDS011;33476;50.984;3.538;2023-06-22T03:48:19;8.85;;;4.78;;
47715;SDS011;33476;50.984;3.538;2023-06-22T03:50:44;8.65;;;4.75;;
47715;SDS011;33476;50.984;3.538;2023-06-22T03:53:10;8.85;;;4.50;;
47715;SDS011;33476;50.984;3.538;2023-06-22T03:55:35;5.47;;;3.53;;
47715;SDS011;33476;50.984;3.538;2023-06-22T03:58:01;6.25;;;4.22;;
47715;SDS011;33476;50.984;3.538;2023-06-22T04:00:31;6.82;;;4.22;;
47715;SDS011;33476;50.984;3.538;2023-06-22T04:02:57;7.35;;;4.65;;
47715;SDS011;33476;50.984;3.538;2023-06-22T04:05:22;6.95;;;4.57;;
47715;SDS011;33476;50.984;3.538;2023-06-22T04:07:49;6.53;;;3.80;;
47715;SDS011;33476;50.984;3.538;2023-06-22T04:10:14;8.93;;;4.22;;
47715;SDS011;33476;50.984;3.538;2023-06-22T04:12:40;6.22;;;4.00;;
47715;SDS011;33476;50.984;3.538;2023-06-22T04:15:05;7.85;;;4.20;;
47715;SDS011;33476;50.984;3.538;2023-06-22T04:17:31;17.38;;;4.13;;
47715;SDS011;33476;50.984;3.538;2023-06-22T04:19:56;8.20;;;4.38;;
47715;SDS011;33476;50.984;3.538;2023-06-22T04:22:21;10.45;;;4.00;;
47715;SDS011;33476;50.984;3.538;2023-06-22T04:24:47;9.57;;;4.72;;
47715;SDS011;33476;50.984;3.538;2023-06-22T04:27:12;6.25;;;4.22;;
47715;SDS011;33476;50.984;3.538;2023-06-22T04:29:37;5.55;;;3.97;;
47715;SDS011;33476;50.984;3.538;2023-06-22T04:32:08;9.95;;;4.22;;
47715;SDS011;33476;50.984;3.538;2023-06-22T04:34:34;9.20;;;4.15;;
47715;SDS011;33476;50.984;3.538;2023-06-22T04:36:59;8.52;;;4.50;;
47715;SDS011;33476;50.984;3.538;2023-06-22T04:39:24;7.32;;;4.38;;
47715;SDS011;33476;50.984;3.538;2023-06-22T04:41:52;7.18;;;4.20;;
47715;SDS011;33476;50.984;3.538;2023-06-22T04:44:18;8.40;;;4.93;;
47715;SDS011;33476;50.984;3.538;2023-06-22T04:46:49;8.70;;;4.97;;
47715;SDS011;33476;50.984;3.538;2023-06-22T04:49:19;7.75;;;4.53;;
47715;SDS011;33476;50.984;3.538;2023-06-22T04:51:46;9.20;;;5.53;;
47715;SDS011;33476;50.984;3.538;2023-06-22T04:54:12;10.60;;;5.53;;
47715;SDS011;33476;50.984;3.538;2023-06-22T04:56:38;10.65;;;5.05;;
47715;SDS011;33476;50.984;3.538;2023-06-22T04:59:06;10.02;;;5.88;;
47715;SDS011;33476;50.984;3.538;2023-06-22T05:01:32;8.77;;;5.35;;
47715;SDS011;33476;50.984;3.538;2023-06-22T05:03:57;7.90;;;5.20;;
47715;SDS011;33476;50.984;3.538;2023-06-22T05:06:26;8.95;;;5.47;;
47715;SDS011;33476;50.984;3.538;2023-06-22T05:08:55;9.43;;;5.80;;
47715;SDS011;33476;50.984;3.538;2023-06-22T05:11:27;10.48;;;4.97;;
47715;SDS011;33476;50.984;3.538;2023-06-22T05:13:53;8.85;;;5.70;;
47715;SDS011;33476;50.984;3.538;2023-06-22T05:16:19;12.05;;;5.90;;
47715;SDS011;33476;50.984;3.538;2023-06-22T05:18:52;9.00;;;5.70;;
47715;SDS011;33476;50.984;3.538;2023-06-22T05:21:22;9.60;;;5.43;;
47715;SDS011;33476;50.984;3.538;2023-06-22T05:26:14;11.45;;;5.55;;
47715;SDS011;33476;50.984;3.538;2023-06-22T05:28:40;12.18;;;6.05;;
47715;SDS011;33476;50.984;3.538;2023-06-22T05:31:05;8.68;;;5.78;;
47715;SDS011;33476;50.984;3.538;2023-06-22T05:33:30;9.40;;;6.22;;
47715;SDS011;33476;50.984;3.538;2023-06-22T05:35:56;9.15;;;5.32;;
47715;SDS011;33476;50.984;3.538;2023-06-22T05:38:21;10.88;;;6.95;;
47715;SDS011;33476;50.984;3.538;2023-06-22T05:40:47;8.45;;;5.65;;
47715;SDS011;33476;50.984;3.538;2023-06-22T05:43:12;11.00;;;6.07;;
47715;SDS011;33476;50.984;3.538;2023-06-22T05:45:37;9.77;;;6.47;;
47715;SDS011;33476;50.984;3.538;2023-06-22T05:48:03;14.00;;;6.80;;
47715;SDS011;33476;50.984;3.538;2023-06-22T05:50:28;10.45;;;6.05;;
47715;SDS011;33476;50.984;3.538;2023-06-22T05:52:54;12.18;;;6.68;;
47715;SDS011;33476;50.984;3.538;2023-06-22T05:55:19;11.10;;;6.95;;
47715;SDS011;33476;50.984;3.538;2023-06-22T05:57:44;10.88;;;6.57;;
47715;SDS011;33476;50.984;3.538;2023-06-22T06:00:10;9.90;;;6.90;;
47715;SDS011;33476;50.984;3.538;2023-06-22T06:02:36;11.90;;;7.07;;
47715;SDS011;33476;50.984;3.538;2023-06-22T06:05:02;14.80;;;6.90;;
47715;SDS011;33476;50.984;3.538;2023-06-22T06:07:28;12.70;;;7.43;;
47715;SDS011;33476;50.984;3.538;2023-06-22T06:09:54;12.88;;;7.65;;
47715;SDS011;33476;50.984;3.538;2023-06-22T06:12:19;12.85;;;7.07;;
47715;SDS011;33476;50.984;3.538;2023-06-22T06:14:45;11.18;;;7.68;;
47715;SDS011;33476;50.984;3.538;2023-06-22T06:17:10;13.55;;;8.10;;
47715;SDS011;33476;50.984;3.538;2023-06-22T06:19:36;12.82;;;7.78;;
47715;SDS011;33476;50.984;3.538;2023-06-22T06:22:01;14.18;;;8.02;;
47715;SDS011;33476;50.984;3.538;2023-06-22T06:24:26;13.75;;;7.82;;
47715;SDS011;33476;50.984;3.538;2023-06-22T06:26:52;12.68;;;7.50;;
47715;SDS011;33476;50.984;3.538;2023-06-22T06:29:17;11.57;;;7.70;;
47715;SDS011;33476;50.984;3.538;2023-06-22T06:31:42;14.50;;;7.72;;
47715;SDS011;33476;50.984;3.538;2023-06-22T06:34:08;15.02;;;8.13;;
47715;SDS011;33476;50.984;3.538;2023-06-22T06:36:33;15.85;;;8.30;;
47715;SDS011;33476;50.984;3.538;2023-06-22T06:38:59;13.60;;;8.55;;
47715;SDS011;33476;50.984;3.538;2023-06-22T06:41:24;15.15;;;8.75;;
47715;SDS011;33476;50.984;3.538;2023-06-22T06:43:49;15.00;;;8.15;;
47715;SDS011;33476;50.984;3.538;2023-06-22T06:46:15;17.05;;;8.88;;
47715;SDS011;33476;50.984;3.538;2023-06-22T06:48:40;13.70;;;8.45;;
47715;SDS011;33476;50.984;3.538;2023-06-22T06:51:06;13.02;;;8.88;;
47715;SDS011;33476;50.984;3.538;2023-06-22T06:53:34;15.13;;;9.00;;
47715;SDS011;33476;50.984;3.538;2023-06-22T06:56:00;13.57;;;9.15;;
47715;SDS011;33476;50.984;3.538;2023-06-22T06:58:25;14.73;;;9.15;;
47715;SDS011;33476;50.984;3.538;2023-06-22T07:00:51;17.17;;;9.38;;
47715;SDS011;33476;50.984;3.538;2023-06-22T07:03:16;15.52;;;8.95;;
47715;SDS011;33476;50.984;3.538;2023-06-22T07:05:41;15.50;;;8.80;;
47715;SDS011;33476;50.984;3.538;2023-06-22T07:08:07;15.73;;;9.15;;
47715;SDS011;33476;50.984;3.538;2023-06-22T07:10:33;17.85;;;9.73;;
47715;SDS011;33476;50.984;3.538;2023-06-22T07:12:58;15.10;;;9.60;;
47715;SDS011;33476;50.984;3.538;2023-06-22T07:15:24;17.17;;;10.13;;
47715;SDS011;33476;50.984;3.538;2023-06-22T07:17:49;15.82;;;9.98;;
47715;SDS011;33476;50.984;3.538;2023-06-22T07:20:14;14.50;;;9.52;;
47715;SDS011;33476;50.984;3.538;2023-06-22T07:22:40;20.02;;;10.43;;
47715;SDS011;33476;50.984;3.538;2023-06-22T07:25:08;19.05;;;10.55;;
47715;SDS011;33476;50.984;3.538;2023-06-22T07:27:39;15.43;;;10.13;;
47715;SDS011;33476;50.984;3.538;2023-06-22T07:30:09;16.95;;;9.48;;
47715;SDS011;33476;50.984;3.538;2023-06-22T07:32:35;17.77;;;9.50;;
47715;SDS011;33476;50.984;3.538;2023-06-22T07:35:01;18.25;;;9.77;;
47715;SDS011;33476;50.984;3.538;2023-06-22T07:37:27;14.13;;;8.98;;
47715;SDS011;33476;50.984;3.538;2023-06-22T07:39:53;15.45;;;9.05;;
47715;SDS011;33476;50.984;3.538;2023-06-22T07:42:23;17.80;;;9.87;;
47715;SDS011;33476;50.984;3.538;2023-06-22T07:44:51;16.40;;;10.02;;
47715;SDS011;33476;50.984;3.538;2023-06-22T07:47:17;17.27;;;10.40;;
47715;SDS011;33476;50.984;3.538;2023-06-22T07:49:50;16.98;;;10.00;;
47715;SDS011;33476;50.984;3.538;2023-06-22T07:52:15;13.77;;;9.35;;
47715;SDS011;33476;50.984;3.538;2023-06-22T07:54:40;12.10;;;9.38;;
47715;SDS011;33476;50.984;3.538;2023-06-22T07:57:06;15.52;;;9.55;;
47715;SDS011;33476;50.984;3.538;2023-06-22T07:59:31;15.98;;;9.85;;
47715;SDS011;33476;50.984;3.538;2023-06-22T08:01:57;14.63;;;9.85;;
47715;SDS011;33476;50.984;3.538;2023-06-22T08:04:22;13.52;;;9.02;;
47715;SDS011;33476;50.984;3.538;2023-06-22T08:06:48;15.32;;;8.85;;
47715;SDS011;33476;50.984;3.538;2023-06-22T08:09:14;16.20;;;8.52;;
47715;SDS011;33476;50.984;3.538;2023-06-22T08:11:39;10.48;;;8.23;;
47715;SDS011;33476;50.984;3.538;2023-06-22T08:14:05;12.20;;;8.20;;
47715;SDS011;33476;50.984;3.538;2023-06-22T08:16:30;12.02;;;8.32;;
47715;SDS011;33476;50.984;3.538;2023-06-22T08:18:56;17.63;;;8.90;;
47715;SDS011;33476;50.984;3.538;2023-06-22T08:21:21;15.18;;;9.45;;
47715;SDS011;33476;50.984;3.538;2023-06-22T08:23:47;14.35;;;9.77;;
47715;SDS011;33476;50.984;3.538;2023-06-22T08:26:14;15.90;;;9.38;;
47715;SDS011;33476;50.984;3.538;2023-06-22T08:28:39;15.43;;;9.52;;
47715;SDS011;33476;50.984;3.538;2023-06-22T08:31:05;15.00;;;10.57;;
47715;SDS011;33476;50.984;3.538;2023-06-22T08:33:30;15.18;;;9.90;;
47715;SDS011;33476;50.984;3.538;2023-06-22T08:35:56;19.65;;;9.85;;
47715;SDS011;33476;50.984;3.538;2023-06-22T08:38:23;17.05;;;10.80;;
47715;SDS011;33476;50.984;3.538;2023-06-22T08:40:48;18.70;;;11.32;;
47715;SDS011;33476;50.984;3.538;2023-06-22T08:43:14;16.25;;;10.73;;
47715;SDS011;33476;50.984;3.538;2023-06-22T08:45:39;19.42;;;11.70;;
47715;SDS011;33476;50.984;3.538;2023-06-22T08:48:05;24.75;;;13.70;;
47715;SDS011;33476;50.984;3.538;2023-06-22T08:50:30;23.23;;;13.40;;
47715;SDS011;33476;50.984;3.538;2023-06-22T08:52:55;22.60;;;13.43;;
47715;SDS011;33476;50.984;3.538;2023-06-22T08:55:21;19.63;;;11.15;;
47715;SDS011;33476;50.984;3.538;2023-06-22T08:57:46;17.95;;;10.23;;
47715;SDS011;33476;50.984;3.538;2023-06-22T09:00:12;16.45;;;10.63;;
47715;SDS011;33476;50.984;3.538;2023-06-22T09:02:45;17.75;;;8.77;;
47715;SDS011;33476;50.984;3.538;2023-06-22T09:05:11;14.88;;;8.75;;
47715;SDS011;33476;50.984;3.538;2023-06-22T09:07:37;12.93;;;9.05;;
47715;SDS011;33476;50.984;3.538;2023-06-22T09:10:02;12.70;;;8.93;;
47715;SDS011;33476;50.984;3.538;2023-06-22T09:12:31;13.68;;;8.65;;
47715;SDS011;33476;50.984;3.538;2023-06-22T09:14:58;15.60;;;8.90;;
47715;SDS011;33476;50.984;3.538;2023-06-22T09:17:25;14.27;;;10.10;;
47715;SDS011;33476;50.984;3.538;2023-06-22T09:19:51;15.45;;;9.40;;
47715;SDS011;33476;50.984;3.538;2023-06-22T09:22:16;15.95;;;9.63;;
47715;SDS011;33476;50.984;3.538;2023-06-22T09:24:42;13.65;;;9.70;;
47715;SDS011;33476;50.984;3.538;2023-06-22T09:27:07;15.13;;;9.35;;
47715;SDS011;33476;50.984;3.538;2023-06-22T09:29:32;12.98;;;9.05;;
47715;SDS011;33476;50.984;3.538;2023-06-22T09:31:59;15.07;;;9.70;;
47715;SDS011;33476;50.984;3.538;2023-06-22T09:34:25;14.15;;;10.02;;
47715;SDS011;33476;50.984;3.538;2023-06-22T09:36:50;13.00;;;10.00;;
47715;SDS011;33476;50.984;3.538;2023-06-22T09:39:17;11.95;;;9.35;;
47715;SDS011;33476;50.984;3.538;2023-06-22T09:41:43;11.50;;;9.43;;
47715;SDS011;33476;50.984;3.538;2023-06-22T09:44:09;12.38;;;9.77;;
47715;SDS011;33476;50.984;3.538;2023-06-22T09:46:34;14.38;;;9.27;;
47715;SDS011;33476;50.984;3.538;2023-06-22T09:49:00;15.13;;;9.55;;
47715;SDS011;33476;50.984;3.538;2023-06-22T09:51:25;14.65;;;9.77;;
47715;SDS011;33476;50.984;3.538;2023-06-22T09:53:51;13.18;;;9.88;;
47715;SDS011;33476;50.984;3.538;2023-06-22T09:56:18;13.73;;;10.10;;
47715;SDS011;33476;50.984;3.538;2023-06-22T09:58:44;13.68;;;10.25;;
47715;SDS011;33476;50.984;3.538;2023-06-22T10:01:11;16.17;;;10.50;;
47715;SDS011;33476;50.984;3.538;2023-06-22T10:03:37;12.57;;;9.80;;
47715;SDS011;33476;50.984;3.538;2023-06-22T10:06:02;15.57;;;10.90;;
47715;SDS011;33476;50.984;3.538;2023-06-22T10:08:28;16.63;;;10.77;;
47715;SDS011;33476;50.984;3.538;2023-06-22T10:10:54;13.60;;;10.10;;
47715;SDS011;33476;50.984;3.538;2023-06-22T10:13:19;15.45;;;10.63;;
47715;SDS011;33476;50.984;3.538;2023-06-22T10:15:45;17.00;;;11.05;;
47715;SDS011;33476;50.984;3.538;2023-06-22T10:18:15;15.43;;;11.13;;
47715;SDS011;33476;50.984;3.538;2023-06-22T10:20:41;16.65;;;11.50;;
47715;SDS011;33476;50.984;3.538;2023-06-22T10:23:06;16.10;;;11.45;;
47715;SDS011;33476;50.984;3.538;2023-06-22T10:25:32;17.77;;;11.65;;
47715;SDS011;33476;50.984;3.538;2023-06-22T10:27:57;15.95;;;10.63;;
47715;SDS011;33476;50.984;3.538;2023-06-22T10:30:22;20.75;;;11.55;;
47715;SDS011;33476;50.984;3.538;2023-06-22T10:32:48;14.95;;;10.52;;
47715;SDS011;33476;50.984;3.538;2023-06-22T10:35:13;16.92;;;10.48;;
47715;SDS011;33476;50.984;3.538;2023-06-22T10:37:41;14.52;;;10.50;;
47715;SDS011;33476;50.984;3.538;2023-06-22T10:40:11;16.60;;;11.32;;
47715;SDS011;33476;50.984;3.538;2023-06-22T10:45:06;15.98;;;11.20;;
47715;SDS011;33476;50.984;3.538;2023-06-22T10:47:32;16.23;;;10.75;;
47715;SDS011;33476;50.984;3.538;2023-06-22T10:49:58;16.80;;;11.18;;
47715;SDS011;33476;50.984;3.538;2023-06-22T10:52:23;15.85;;;11.00;;
47715;SDS011;33476;50.984;3.538;2023-06-22T10:54:48;14.25;;;10.85;;
47715;SDS011;33476;50.984;3.538;2023-06-22T10:57:14;19.75;;;11.13;;
47715;SDS011;33476;50.984;3.538;2023-06-22T10:59:39;14.55;;;10.95;;
47715;SDS011;33476;50.984;3.538;2023-06-22T11:02:04;16.38;;;11.10;;
47715;SDS011;33476;50.984;3.538;2023-06-22T11:04:30;18.90;;;9.68;;
47715;SDS011;33476;50.984;3.538;2023-06-22T11:06:55;14.38;;;10.15;;
47715;SDS011;33476;50.984;3.538;2023-06-22T11:09:21;15.10;;;9.73;;
47715;SDS011;33476;50.984;3.538;2023-06-22T11:11:47;12.20;;;8.60;;
47715;SDS011;33476;50.984;3.538;2023-06-22T11:14:13;15.00;;;8.48;;
47715;SDS011;33476;50.984;3.538;2023-06-22T11:16:38;12.63;;;9.07;;
47715;SDS011;33476;50.984;3.538;2023-06-22T11:19:04;13.63;;;8.15;;
47715;SDS011;33476;50.984;3.538;2023-06-22T11:21:30;12.57;;;8.65;;
47715;SDS011;33476;50.984;3.538;2023-06-22T11:23:56;11.38;;;7.18;;
47715;SDS011;33476;50.984;3.538;2023-06-22T11:26:21;13.90;;;6.50;;
47715;SDS011;33476;50.984;3.538;2023-06-22T11:28:47;8.02;;;5.25;;
47715;SDS011;33476;50.984;3.538;2023-06-22T11:31:12;8.05;;;5.10;;
47715;SDS011;33476;50.984;3.538;2023-06-22T11:33:38;6.35;;;4.55;;
47715;SDS011;33476;50.984;3.538;2023-06-22T11:36:03;8.18;;;5.13;;
47715;SDS011;33476;50.984;3.538;2023-06-22T11:38:28;8.02;;;5.00;;
47715;SDS011;33476;50.984;3.538;2023-06-22T11:40:55;8.43;;;4.93;;
47715;SDS011;33476;50.984;3.538;2023-06-22T11:43:21;9.85;;;4.97;;
47715;SDS011;33476;50.984;3.538;2023-06-22T11:45:46;9.77;;;5.10;;
47715;SDS011;33476;50.984;3.538;2023-06-22T11:48:12;10.50;;;5.65;;
47715;SDS011;33476;50.984;3.538;2023-06-22T11:50:37;8.68;;;5.07;;
47715;SDS011;33476;50.984;3.538;2023-06-22T11:53:02;11.38;;;6.05;;
47715;SDS011;33476;50.984;3.538;2023-06-22T11:55:28;12.15;;;6.20;;
47715;SDS011;33476;50.984;3.538;2023-06-22T11:57:54;12.20;;;5.88;;
47715;SDS011;33476;50.984;3.538;2023-06-22T12:00:23;12.43;;;6.60;;
47715;SDS011;33476;50.984;3.538;2023-06-22T12:02:49;11.75;;;6.82;;
47715;SDS011;33476;50.984;3.538;2023-06-22T12:05:19;13.10;;;7.18;;
47715;SDS011;33476;50.984;3.538;2023-06-22T12:07:46;14.18;;;8.25;;
47715;SDS011;33476;50.984;3.538;2023-06-22T12:10:11;14.30;;;8.60;;
47715;SDS011;33476;50.984;3.538;2023-06-22T12:12:37;15.55;;;8.77;;
47715;SDS011;33476;50.984;3.538;2023-06-22T12:15:02;12.98;;;8.75;;
47715;SDS011;33476;50.984;3.538;2023-06-22T12:17:29;14.88;;;9.07;;
47715;SDS011;33476;50.984;3.538;2023-06-22T12:19:55;12.48;;;8.70;;
47715;SDS011;33476;50.984;3.538;2023-06-22T12:22:20;15.57;;;9.07;;
47715;SDS011;33476;50.984;3.538;2023-06-22T12:24:46;17.13;;;9.32;;
47715;SDS011;33476;50.984;3.538;2023-06-22T12:27:11;15.65;;;8.95;;
47715;SDS011;33476;50.984;3.538;2023-06-22T12:29:37;16.83;;;9.80;;
47715;SDS011;33476;50.984;3.538;2023-06-22T12:32:02;13.90;;;9.40;;
47715;SDS011;33476;50.984;3.538;2023-06-22T12:34:28;19.10;;;9.13;;
47715;SDS011;33476;50.984;3.538;2023-06-22T12:36:53;15.10;;;9.27;;
47715;SDS011;33476;50.984;3.538;2023-06-22T12:39:19;19.02;;;9.38;;
47715;SDS011;33476;50.984;3.538;2023-06-22T12:41:45;11.95;;;8.88;;
47715;SDS011;33476;50.984;3.538;2023-06-22T12:44:10;12.38;;;8.18;;
47715;SDS011;33476;50.984;3.538;2023-06-22T12:46:36;13.10;;;7.85;;
47715;SDS011;33476;50.984;3.538;2023-06-22T12:49:03;11.65;;;7.07;;
47715;SDS011;33476;50.984;3.538;2023-06-22T12:51:29;12.32;;;7.70;;
47715;SDS011;33476;50.984;3.538;2023-06-22T12:53:56;8.70;;;6.30;;
47715;SDS011;33476;50.984;3.538;2023-06-22T12:56:21;8.75;;;6.47;;
47715;SDS011;33476;50.984;3.538;2023-06-22T12:58:46;10.30;;;6.63;;
47715;SDS011;33476;50.984;3.538;2023-06-22T13:01:12;8.57;;;5.78;;
47715;SDS011;33476;50.984;3.538;2023-06-22T13:03:37;9.82;;;5.57;;
47715;SDS011;33476;50.984;3.538;2023-06-22T13:06:03;9.77;;;5.15;;
47715;SDS011;33476;50.984;3.538;2023-06-22T13:08:28;8.05;;;5.95;;
47715;SDS011;33476;50.984;3.538;2023-06-22T13:10:54;7.93;;;5.43;;
47715;SDS011;33476;50.984;3.538;2023-06-22T13:13:23;8.65;;;5.75;;
47715;SDS011;33476;50.984;3.538;2023-06-22T13:15:49;8.73;;;5.47;;
47715;SDS011;33476;50.984;3.538;2023-06-22T13:18:15;10.07;;;5.70;;
47715;SDS011;33476;50.984;3.538;2023-06-22T13:20:40;9.23;;;5.78;;
47715;SDS011;33476;50.984;3.538;2023-06-22T13:23:06;7.13;;;5.63;;
47715;SDS011;33476;50.984;3.538;2023-06-22T13:25:31;7.68;;;4.88;;
47715;SDS011;33476;50.984;3.538;2023-06-22T13:27:57;7.40;;;5.28;;
47715;SDS011;33476;50.984;3.538;2023-06-22T13:30:22;6.30;;;4.53;;
47715;SDS011;33476;50.984;3.538;2023-06-22T13:32:47;8.40;;;4.60;;
47715;SDS011;33476;50.984;3.538;2023-06-22T13:35:13;7.80;;;5.13;;
47715;SDS011;33476;50.984;3.538;2023-06-22T13:37:38;8.45;;;5.22;;
47715;SDS011;33476;50.984;3.538;2023-06-22T13:40:07;7.13;;;5.13;;
47715;SDS011;33476;50.984;3.538;2023-06-22T13:42:33;8.15;;;5.18;;
47715;SDS011;33476;50.984;3.538;2023-06-22T13:44:58;7.55;;;5.43;;
47715;SDS011;33476;50.984;3.538;2023-06-22T13:47:24;6.30;;;5.28;;
47715;SDS011;33476;50.984;3.538;2023-06-22T13:49:49;7.32;;;5.60;;
47715;SDS011;33476;50.984;3.538;2023-06-22T13:52:14;9.10;;;5.63;;
47715;SDS011;33476;50.984;3.538;2023-06-22T13:54:40;7.90;;;5.13;;
47715;SDS011;33476;50.984;3.538;2023-06-22T13:57:05;8.55;;;6.05;;
47715;SDS011;33476;50.984;3.538;2023-06-22T13:59:31;10.77;;;6.43;;
47715;SDS011;33476;50.984;3.538;2023-06-22T14:01:56;14.55;;;7.60;;
47715;SDS011;33476;50.984;3.538;2023-06-22T14:04:24;15.43;;;7.97;;
47715;SDS011;33476;50.984;3.538;2023-06-22T14:06:50;19.20;;;8.90;;
47715;SDS011;33476;50.984;3.538;2023-06-22T14:09:15;17.58;;;10.93;;
47715;SDS011;33476;50.984;3.538;2023-06-22T14:11:40;19.60;;;11.18;;
47715;SDS011;33476;50.984;3.538;2023-06-22T14:14:06;21.83;;;11.88;;
47715;SDS011;33476;50.984;3.538;2023-06-22T14:16:31;20.98;;;12.35;;
47715;SDS011;33476;50.984;3.538;2023-06-22T14:18:57;19.20;;;12.48;;
47715;SDS011;33476;50.984;3.538;2023-06-22T14:21:22;17.85;;;11.82;;
47715;SDS011;33476;50.984;3.538;2023-06-22T14:23:47;23.13;;;12.48;;
47715;SDS011;33476;50.984;3.538;2023-06-22T14:26:17;21.17;;;12.57;;
47715;SDS011;33476;50.984;3.538;2023-06-22T14:28:44;25.50;;;13.52;;
47715;SDS011;33476;50.984;3.538;2023-06-22T14:31:16;19.90;;;11.43;;
47715;SDS011;33476;50.984;3.538;2023-06-22T14:36:10;18.00;;;11.52;;
47715;SDS011;33476;50.984;3.538;2023-06-22T14:38:36;16.40;;;10.25;;
47715;SDS011;33476;50.984;3.538;2023-06-22T14:41:01;18.65;;;11.18;;
47715;SDS011;33476;50.984;3.538;2023-06-22T14:43:26;19.20;;;12.38;;